MSC Levina — 3FJR8 — position and weather

sailwx.info

Track history (hours):
 
Tides and Currents Weather Stations Pressure Air Temp Water Temp Dewpoint Dewpoint Depression Visibility Wind Speed Wind Dir Waves Ship Positions

MSC Levina

Last reported at 2014-Dec-15 12:33 UTC. Time now 2014-Dec-20 08:01 UTC.
Position N 34°29' W 075°45'.

Length 227.6 m; beam 32.2 m; draft 12.1 m.

Type: Ship (hazmat cat A). MMSI: 355609000.

Date/timePositionNaut miles runAvg speedWind from/ knotsBaromVisibWave heightAir tempDewpointWater temp
2014-Dec-15 12:33N 34°29' W 075°45'214 6.3
2014-Dec-14 02:29N 38°02' W 076°13'4716.1
2014-Dec-13 23:33N 38°48' W 076°25'1615.6
2014-Dec-13 22:33N 39°04' W 076°24'1212.2
2014-Dec-13 21:33N 39°14' W 076°33'1 1.4
2014-Dec-13 20:33N 39°15' W 076°33'0 0.0
2014-Dec-13 19:33N 39°15' W 076°33'0 0.0
2014-Dec-13 18:33N 39°15' W 076°33'0 0.0
2014-Dec-13 17:33N 39°15' W 076°33'0 0.0
2014-Dec-13 16:33N 39°15' W 076°33'0 0.0
2014-Dec-13 15:33N 39°15' W 076°33'0 0.0
2014-Dec-13 14:33N 39°15' W 076°33'0 0.0
2014-Dec-13 13:33N 39°15' W 076°33'2 1.7
2014-Dec-13 12:33N 39°14' W 076°32'10 9.7
2014-Dec-13 11:33N 39°07' W 076°24'1414.4
2014-Dec-13 10:34N 38°52' W 076°24'122 5.3
2014-Dec-12 11:29N 39°24' W 073°52'1715.3
2014-Dec-12 10:23N 39°41' W 073°52'1315.4
2014-Dec-12 09:32N 39°54' W 073°51'3310.8
2014-Dec-12 06:29N 40°27' W 073°49'9 9.9
2014-Dec-12 05:33N 40°31' W 073°60'9 9.4
2014-Dec-12 04:33N 40°39' W 074°07'3 2.5
2014-Dec-12 03:33N 40°41' W 074°09'0 0.3
2014-Dec-12 02:31N 40°41' W 074°09'0 0.0
2014-Dec-12 01:33N 40°41' W 074°09'0 0.0
2014-Dec-12 00:33N 40°41' W 074°09'0 0.0
2014-Dec-11 23:33N 40°41' W 074°09'0 0.0
2014-Dec-11 22:33N 40°41' W 074°09'0 0.0
2014-Dec-11 21:33N 40°41' W 074°09'0 0.0
2014-Dec-11 20:33N 40°41' W 074°09'0 0.0
2014-Dec-11 19:33N 40°41' W 074°09'0 0.0
2014-Dec-11 18:33N 40°41' W 074°09'0 0.0
2014-Dec-11 17:33N 40°41' W 074°09'0 0.0
2014-Dec-11 16:33N 40°41' W 074°09'0 0.0
2014-Dec-11 15:33N 40°41' W 074°09'0 0.0
2014-Dec-11 14:24N 40°41' W 074°09'0 0.1
2014-Dec-11 13:33N 40°41' W 074°09'3 2.6
2014-Dec-11 12:34N 40°39' W 074°08'4 4.4
2014-Dec-11 11:33N 40°37' W 074°03'6 5.7
2014-Dec-11 10:34N 40°31' W 073°60'10 9.6
2014-Dec-11 09:31N 40°28' W 073°47'6 6.1
2014-Dec-11 08:32N 40°22' W 073°46'42 8.5
2014-Dec-11 03:33N 39°40' W 073°41'4 3.9
2014-Dec-11 02:33N 39°36' W 073°42'1211.7
2014-Dec-11 01:32N 39°24' W 073°45'  
Track history (hours):
 
Tides and Currents Weather Stations Pressure Air Temp Water Temp Dewpoint Dewpoint Depression Visibility Wind Speed Wind Dir Waves Ship Positions

MSC Levina

Last reported at 2014-Dec-15 12:33 UTC. Time now 2014-Dec-20 08:01 UTC.
Position N 34°29' W 075°45'.

Length 227.6 m; beam 32.2 m; draft 12.1 m.

Type: Ship (hazmat cat A). MMSI: 355609000.

Date/timePositionNaut miles runAvg speedWind from/ knotsBaromVisibWave heightAir tempDewpointWater temp
2014-Dec-15 12:33N 34°29' W 075°45'214 6.3
2014-Dec-14 02:29N 38°02' W 076°13'4716.1
2014-Dec-13 23:33N 38°48' W 076°25'1615.6
2014-Dec-13 22:33N 39°04' W 076°24'1212.2
2014-Dec-13 21:33N 39°14' W 076°33'1 1.4
2014-Dec-13 20:33N 39°15' W 076°33'0 0.0
2014-Dec-13 19:33N 39°15' W 076°33'0 0.0
2014-Dec-13 18:33N 39°15' W 076°33'0 0.0
2014-Dec-13 17:33N 39°15' W 076°33'0 0.0
2014-Dec-13 16:33N 39°15' W 076°33'0 0.0
2014-Dec-13 15:33N 39°15' W 076°33'0 0.0
2014-Dec-13 14:33N 39°15' W 076°33'0 0.0
2014-Dec-13 13:33N 39°15' W 076°33'2 1.7
2014-Dec-13 12:33N 39°14' W 076°32'10 9.7
2014-Dec-13 11:33N 39°07' W 076°24'1414.4
2014-Dec-13 10:34N 38°52' W 076°24'122 5.3
2014-Dec-12 11:29N 39°24' W 073°52'1715.3
2014-Dec-12 10:23N 39°41' W 073°52'1315.4
2014-Dec-12 09:32N 39°54' W 073°51'3310.8
2014-Dec-12 06:29N 40°27' W 073°49'9 9.9
2014-Dec-12 05:33N 40°31' W 073°60'9 9.4
2014-Dec-12 04:33N 40°39' W 074°07'3 2.5
2014-Dec-12 03:33N 40°41' W 074°09'0 0.3
2014-Dec-12 02:31N 40°41' W 074°09'0 0.0
2014-Dec-12 01:33N 40°41' W 074°09'0 0.0
2014-Dec-12 00:33N 40°41' W 074°09'0 0.0
2014-Dec-11 23:33N 40°41' W 074°09'0 0.0
2014-Dec-11 22:33N 40°41' W 074°09'0 0.0
2014-Dec-11 21:33N 40°41' W 074°09'0 0.0
2014-Dec-11 20:33N 40°41' W 074°09'0 0.0
2014-Dec-11 19:33N 40°41' W 074°09'0 0.0
2014-Dec-11 18:33N 40°41' W 074°09'0 0.0
2014-Dec-11 17:33N 40°41' W 074°09'0 0.0
2014-Dec-11 16:33N 40°41' W 074°09'0 0.0
2014-Dec-11 15:33N 40°41' W 074°09'0 0.0
2014-Dec-11 14:24N 40°41' W 074°09'0 0.1
2014-Dec-11 13:33N 40°41' W 074°09'3 2.6
2014-Dec-11 12:34N 40°39' W 074°08'4 4.4
2014-Dec-11 11:33N 40°37' W 074°03'6 5.7
2014-Dec-11 10:34N 40°31' W 073°60'10 9.6
2014-Dec-11 09:31N 40°28' W 073°47'6 6.1
2014-Dec-11 08:32N 40°22' W 073°46'42 8.5
2014-Dec-11 03:33N 39°40' W 073°41'4 3.9
2014-Dec-11 02:33N 39°36' W 073°42'1211.7
2014-Dec-11 01:32N 39°24' W 073°45'  

Dump ship's entire track history